Latest Weather Observations for PORTABLE RFSNSW52

IDN60801

Issued at 12:12 pm EDT Thursday 21 November 2019 (issued every 10 minutes, with the page automatically refreshed every 10 minutes)

About weather observations | Map of weather stations | Latest weather observations for NSW | Other Formats
Station Details ID: 250095 Name: PORTABLE RFSNSW52 Lat: -35.44 Lon: 146.44 Height: 146.0 m

Portable automatic weather stations (PAWS) are operated by other organisations, such as Fire and Emergency Services, and are included here by agreement. Portable stations may be deployed to a location for a short period and their location may be subject to change without notice. Wind observations from these stations are provided from heights of either three (3) or ten (10) metres above ground level (AGL).

Data from the previous 72 hours. | See also: Recent months for locations in New South Wales
Date/Time
EDT
Temp
°C
App
Temp
°C
Dew
Point
°C
Rel
Hum
%
Delta-T
°C
Wind Press
QNH
hPa
Press
MSL
hPa
Rain since
9am
mm
Dir  Spd
km/h
Gust
km/h
Spd
kts
Gust
kts
21/12:00pm 38.4 35.0 6.1 14 18.0 E 13 13 7 7 - - 0.0
21/11:50am 38.0 34.6 5.9 14 17.8 E 13 13 7 7 - - 0.0
21/11:40am 38.0 34.5 5.5 13 17.9 E 13 13 7 7 - - 0.0
21/11:30am 37.3 33.8 5.4 14 17.5 E 13 13 7 7 - - 0.0
21/11:20am 37.2 33.6 5.1 14 17.5 E 13 13 7 7 - - 0.0
21/11:10am 37.1 33.6 5.5 14 17.3 E 13 13 7 7 - - 0.0
21/11:00am 36.1 32.5 4.9 14 16.9 E 13 13 7 7 - - 0.0
21/10:50am 35.8 32.3 5.6 15 16.5 E 13 13 7 7 - - 0.0
21/10:40am 35.6 32.3 6.5 16 16.1 E 13 13 7 7 - - 0.0
21/10:30am - - 6.5 - - E 13 13 7 7 - - 0.0
21/10:20am - - 6.9 - - E 13 13 7 7 - - 0.0
21/10:10am - - 8.1 - - E 13 13 7 7 - - 0.0
21/10:00am - - 8.2 - - E 13 13 7 7 - - 0.0
21/09:50am - - 8.0 - - E 13 13 7 7 - - 0.0
21/09:40am - - 8.4 - - E 13 13 7 7 - - 0.0
21/09:30am - - 8.4 - - E 13 13 7 7 - - 0.0
21/09:20am - - 8.3 - - E 13 13 7 7 - - 0.0
21/09:00am - - 8.3 - - E 13 13 7 7 - - 0.0
21/08:50am - - 8.2 - - E 13 13 7 7 - - 0.0
21/08:40am - - 8.1 - - E 13 13 7 7 - - 0.0
21/08:30am - - 8.0 - - E 13 13 7 7 - - 0.0
21/08:20am - - 8.0 - - E 13 13 7 7 - - 0.0
21/08:10am - - 7.9 - - E 13 13 7 7 - - 0.0
21/08:00am - - 7.5 - - E 13 13 7 7 - - 0.0
21/07:50am - - 7.3 - - E 13 13 7 7 - - 0.0
21/07:40am - - 7.0 - - E 13 13 7 7 - - 0.0
21/07:30am - - 6.7 - - E 13 13 7 7 - - 0.0
21/07:20am - - 6.5 - - E 13 13 7 7 - - 0.0
21/07:10am - - 6.1 - - E 13 13 7 7 - - 0.0
21/07:00am - - 5.7 - - E 13 13 7 7 - - 0.0
21/06:50am - - 5.3 - - E 13 13 7 7 - - 0.0
21/06:40am - - 4.7 - - E 13 13 7 7 - - 0.0
21/06:30am - - 4.5 - - E 13 13 7 7 - - 0.0
21/06:20am - - 4.3 - - E 13 13 7 7 - - 0.0
21/06:10am - - 4.3 - - E 13 13 7 7 - - 0.0
21/06:00am - - 4.2 - - E 13 13 7 7 - - 0.0
21/05:50am - - 4.0 - - E 13 13 7 7 - - 0.0
21/05:40am - - 3.7 - - E 13 13 7 7 - - 0.0
21/05:30am - - 3.3 - - E 13 13 7 7 - - 0.0
21/05:20am - - 2.9 - - E 13 13 7 7 - - 0.0
21/05:10am - - 2.6 - - E 13 13 7 7 - - 0.0
21/05:00am - - 2.3 - - E 13 13 7 7 - - 0.0
21/04:30am 24.7 20.5 1.9 22 10.9 E 13 13 7 7 - - 0.0
21/04:20am 25.0 20.8 1.5 21 11.2 E 13 13 7 7 - - 0.0
21/04:10am 25.1 20.8 1.1 20 11.4 E 13 13 7 7 - - 0.0
21/04:00am 25.0 20.7 1.0 20 11.3 E 13 13 7 7 - - 0.0
21/03:50am 25.1 20.8 0.9 20 11.4 E 13 13 7 7 - - 0.0
21/03:40am 25.0 20.7 0.8 20 11.4 E 13 13 7 7 - - 0.0
21/03:30am 25.1 20.7 0.6 20 11.5 E 13 13 7 7 - - 0.0
21/03:20am 24.8 20.4 0.3 20 11.4 E 13 13 7 7 - - 0.0
21/03:10am 24.5 20.1 0.2 20 11.3 E 13 13 7 7 - - 0.0
21/03:00am 24.4 20.0 0.2 20 11.2 E 13 13 7 7 - - 0.0
21/02:50am 24.4 20.0 0.3 20 11.2 E 13 13 7 7 - - 0.0
21/02:40am 24.1 19.7 0.1 20 11.1 E 13 13 7 7 - - 0.0
21/02:30am 23.8 19.4 0.5 21 10.8 E 13 13 7 7 - - 0.0
21/02:20am 24.1 19.7 0.5 21 11.0 E 13 13 7 7 - - 0.0
21/02:10am 24.0 19.7 0.7 21 10.9 E 13 13 7 7 - - 0.0
21/02:00am 23.5 19.2 0.7 22 10.6 E 13 13 7 7 - - 0.0
21/01:50am 23.0 18.6 0.6 22 10.3 E 13 13 7 7 - - 0.0
21/01:40am 22.4 18.1 0.7 23 10.0 E 13 13 7 7 - - 0.0
21/01:30am 22.5 18.2 0.9 24 10.0 E 13 13 7 7 - - 0.0
21/01:20am 22.9 18.6 0.8 23 10.2 E 13 13 7 7 - - 0.0
21/01:10am 23.3 19.0 1.0 23 10.4 E 13 13 7 7 - - 0.0
21/01:00am 23.6 19.3 0.9 22 10.6 E 13 13 7 7 - - 0.0
21/12:50am 23.9 19.6 0.9 22 10.7 E 13 13 7 7 - - 0.0
21/12:40am 23.8 19.5 0.7 22 10.7 E 13 13 7 7 - - 0.0
21/12:30am 23.8 19.5 0.7 22 10.7 E 13 13 7 7 - - 0.0
21/12:20am 23.6 19.2 0.5 21 10.7 E 13 13 7 7 - - 0.0
21/12:10am 23.7 19.3 0.6 22 10.7 E 13 13 7 7 - - 0.0
21/12:00am 23.3 18.9 0.4 22 10.5 E 13 13 7 7 - - 0.0
 
Date/Time
EDT
Temp
°C
App
Temp
°C
Dew
Point
°C
Rel
Hum
%
Delta-T
°C
Wind Press
QNH
hPa
Press
MSL
hPa
Rain since
9am
mm
Dir  Spd
km/h
Gust
km/h
Spd
kts
Gust
kts
20/11:50pm 22.9 18.5 0.2 22 10.4 E 13 13 7 7 - - 0.0
20/11:40pm 23.1 18.7 0.1 22 10.5 E 13 13 7 7 - - 0.0
20/11:30pm 23.2 18.7 -0.1 21 10.6 E 13 13 7 7 - - 0.0
20/11:20pm 23.5 19.0 0.0 21 10.8 E 13 13 7 7 - - 0.0
20/11:10pm 24.3 19.8 -0.1 20 11.2 E 13 13 7 7 - - 0.0
20/11:00pm 24.9 20.4 -0.2 19 11.6 E 13 13 7 7 - - 0.0
20/10:50pm 24.4 19.9 -0.6 19 11.4 E 13 13 7 7 - - 0.0
20/10:40pm 24.3 19.7 -1.1 18 11.5 E 13 13 7 7 - - 0.0
20/10:30pm 24.3 19.7 -1.4 18 11.5 E 13 13 7 7 - - 0.0
20/10:20pm 24.2 19.5 -1.8 18 11.6 E 13 13 7 7 - - 0.0
20/10:10pm 24.3 19.6 -1.9 17 11.6 E 13 13 7 7 - - 0.0
20/10:00pm 25.1 20.4 -2.0 16 12.1 E 13 13 7 7 - - 0.0
20/09:50pm 25.6 20.9 -2.1 16 12.4 E 13 13 7 7 - - 0.0
20/09:40pm 26.2 21.4 -2.2 15 12.8 E 13 13 7 7 - - 0.0
20/09:30pm 27.1 22.3 -2.4 14 13.3 E 13 13 7 7 - - 0.0
20/09:20pm 27.5 22.7 -2.6 14 13.6 E 13 13 7 7 - - 0.0
20/09:10pm 27.8 23.0 -2.8 13 13.8 E 13 13 7 7 - - 0.0
20/09:00pm 28.0 23.1 -3.1 13 13.9 E 13 13 7 7 - - 0.0
20/08:50pm 28.1 23.3 -2.9 13 14.0 E 13 13 7 7 - - 0.0
20/08:40pm 28.6 23.7 -3.1 12 14.3 E 13 13 7 7 - - 0.0
20/08:30pm 29.2 24.3 -3.0 12 14.6 E 13 13 7 7 - - 0.0
20/08:20pm 30.5 25.7 -2.9 11 15.3 E 13 13 7 7 - - 0.0
20/08:10pm 31.4 26.5 -3.5 10 16.0 E 13 13 7 7 - - 0.0
20/08:00pm 31.9 27.0 -3.5 10 16.2 E 13 13 7 7 - - 0.0
20/07:50pm 32.9 28.0 -3.1 10 16.8 E 13 13 7 7 - - 0.0
20/07:40pm 33.6 28.7 -3.8 9 17.3 E 13 13 7 7 - - 0.0
20/07:30pm 34.0 29.1 -3.1 9 17.4 E 13 13 7 7 - - 0.0
20/07:20pm 34.7 29.9 -2.5 9 17.7 E 13 13 7 7 - - 0.0
20/07:10pm 35.3 30.4 -3.4 8 18.2 E 13 13 7 7 - - 0.0
20/07:00pm 35.6 30.6 -3.9 8 18.5 E 13 13 7 7 - - 0.0
20/06:50pm 35.8 30.8 -4.1 7 18.7 E 13 13 7 7 - - 0.0
20/06:40pm 36.3 31.4 -3.7 8 18.9 E 13 13 7 7 - - 0.0
20/06:30pm 36.4 31.4 -4.7 7 19.1 E 13 13 7 7 - - 0.0
20/06:20pm 36.9 31.9 -4.4 7 19.4 E 13 13 7 7 - - 0.0
20/06:10pm 37.3 32.2 -4.8 7 19.7 E 13 13 7 7 - - 0.0
20/06:00pm 37.3 32.3 -4.5 7 19.6 E 13 13 7 7 - - 0.0
20/05:50pm 37.4 32.3 -5.1 6 19.8 E 13 13 7 7 - - 0.0
20/05:40pm 37.1 32.0 -5.2 6 19.6 E 13 13 7 7 - - 0.0
20/05:30pm 37.0 31.9 -5.6 6 19.6 E 13 13 7 7 - - 0.0
20/05:20pm 37.1 32.0 -5.2 6 19.6 E 13 13 7 7 - - 0.0
20/05:10pm 37.1 32.0 -5.0 7 19.6 E 13 13 7 7 - - 0.0
20/05:00pm 37.4 32.3 -5.3 6 19.8 E 13 13 7 7 - - 0.0
20/04:50pm 37.0 31.9 -5.3 6 19.6 E 13 13 7 7 - - 0.0
20/04:40pm 36.8 31.7 -5.4 6 19.5 E 13 13 7 7 - - 0.0
20/04:30pm 37.2 32.1 -5.2 6 19.7 E 13 13 7 7 - - 0.0
20/04:20pm 37.9 32.8 -5.0 6 20.1 E 13 13 7 7 - - 0.0
20/04:10pm 37.7 32.6 -5.4 6 20.0 E 13 13 7 7 - - 0.0
20/04:00pm 37.0 31.9 -5.6 6 19.6 E 13 13 7 7 - - 0.0
20/03:50pm 38.2 33.1 -4.8 6 20.2 E 13 13 7 7 - - 0.0
20/03:40pm 38.3 33.2 -4.9 6 20.3 E 13 13 7 7 - - 0.0
20/03:30pm 38.1 33.0 -5.4 6 20.3 E 13 13 7 7 - - 0.0
20/03:20pm 37.7 32.6 -5.5 6 20.0 E 13 13 7 7 - - 0.0
20/03:10pm 37.7 32.7 -4.7 6 19.9 E 13 13 7 7 - - 0.0
20/03:00pm 37.5 32.4 -5.1 6 19.8 E 13 13 7 7 - - 0.0
20/02:50pm 37.1 32.0 -5.5 6 19.7 E 13 13 7 7 - - 0.0
20/02:40pm 36.9 31.9 -4.5 7 19.4 E 13 13 7 7 - - 0.0
20/02:30pm 37.1 32.0 -5.3 6 19.6 E 13 13 7 7 - - 0.0
20/02:20pm 36.3 31.3 -4.7 7 19.1 E 13 13 7 7 - - 0.0
20/02:10pm 36.3 31.2 -4.8 7 19.1 E 13 13 7 7 - - 0.0
20/02:00pm 36.9 31.8 -4.9 7 19.5 E 13 13 7 7 - - 0.0
20/01:50pm 36.4 31.3 -5.2 7 19.2 E 13 13 7 7 - - 0.0
20/01:40pm 35.6 30.6 -4.6 7 18.6 E 13 13 7 7 - - 0.0
20/01:30pm 34.6 29.6 -4.6 8 18.0 E 13 13 7 7 - - 0.0
20/01:20pm 34.7 29.7 -4.1 8 18.0 E 13 13 7 7 - - 0.0
20/01:10pm 34.7 29.7 -4.6 8 18.1 E 13 13 7 7 - - 0.0
20/01:00pm 34.6 29.6 -4.6 8 18.0 E 13 13 7 7 - - 0.0
20/12:50pm 33.9 28.9 -4.0 8 17.5 E 13 13 7 7 - - 0.0
20/12:40pm 33.3 28.3 -4.6 8 17.3 E 13 13 7 7 - - 0.0
20/12:30pm 33.4 28.4 -4.3 8 17.3 E 13 13 7 7 - - 0.0
20/12:20pm 33.1 28.0 -4.8 8 17.2 E 13 13 7 7 - - 0.0
20/12:10pm 32.7 27.7 -4.6 9 16.9 E 13 13 7 7 - - 0.0
20/12:00pm 33.0 27.9 -4.8 8 17.1 E 13 13 7 7 - - 0.0
20/11:50am 32.3 27.2 -4.8 9 16.7 E 13 13 7 7 - - 0.0
20/11:40am 31.8 26.6 -6.0 8 16.6 E 13 13 7 7 - - 0.0
20/11:30am 31.2 26.2 -4.1 10 15.9 E 13 13 7 7 - - 0.0
20/11:20am 31.0 25.9 -4.9 9 16.0 E 13 13 7 7 - - 0.0
20/11:10am 30.8 25.8 -4.7 10 15.8 E 13 13 7 7 - - 0.0
20/11:00am 31.0 26.1 -3.2 11 15.7 E 13 13 7 7 - - 0.0
20/10:50am 30.5 25.5 -4.3 10 15.6 E 13 13 7 7 - - 0.0
20/10:40am 30.3 25.2 -5.6 9 15.7 E 13 13 7 7 - - 0.0
20/10:30am 29.3 24.3 -4.7 10 15.0 E 13 13 7 7 - - 0.0
20/10:20am 28.7 24.0 -1.6 14 14.0 E 13 13 7 7 - - 0.0
20/10:10am 28.4 23.8 -1.0 14 13.7 E 13 13 7 7 - - 0.0
20/10:00am 27.8 23.1 -1.7 14 13.5 E 13 13 7 7 - - 0.0
20/09:50am 27.2 23.0 1.5 19 12.4 E 13 13 7 7 - - 0.0
20/09:40am 26.6 22.5 2.5 21 11.8 E 13 13 7 7 - - 0.0
20/09:30am 25.8 21.8 3.0 23 11.2 E 13 13 7 7 - - 0.0
20/09:20am 25.2 21.2 2.9 23 10.9 E 13 13 7 7 - - 0.0
20/09:10am 24.8 20.9 3.4 25 10.5 E 13 13 7 7 - - 0.0
20/09:00am 24.5 20.5 3.1 25 10.5 E 13 13 7 7 - - 0.0
20/08:50am 23.6 20.0 4.9 29 9.4 E 13 13 7 7 - - 0.0
20/08:40am 23.1 19.6 5.3 31 9.0 E 13 13 7 7 - - 0.0
20/08:30am 22.4 18.9 5.4 33 8.6 E 13 13 7 7 - - 0.0
20/08:20am 21.9 18.4 5.4 34 8.3 E 13 13 7 7 - - 0.0
20/08:10am 20.9 17.4 5.5 36 7.7 E 13 13 7 7 - - 0.0
20/08:00am 20.2 16.8 5.7 38 7.2 E 13 13 7 7 - - 0.0
20/07:50am 19.5 16.1 5.9 41 6.8 E 13 13 7 7 - - 0.0
20/07:40am 18.6 15.2 5.8 43 6.3 E 13 13 7 7 - - 0.0
20/07:30am 17.7 14.3 5.9 46 5.8 E 13 13 7 7 - - 0.0
20/07:20am 17.4 13.9 5.6 45 5.8 E 13 13 7 7 - - 0.0
20/07:10am 16.8 13.4 5.8 48 5.4 E 13 13 7 7 - - 0.0
20/07:00am 16.0 12.6 6.0 51 4.9 E 13 13 7 7 - - 0.0
20/06:50am 15.2 11.8 6.0 54 4.5 E 13 13 7 7 - - 0.0
20/06:40am 14.6 11.1 5.6 54 4.3 E 13 13 7 7 - - 0.0
20/06:30am 14.2 10.7 5.5 56 4.1 E 13 13 7 7 - - 0.0
20/06:20am 13.4 9.9 5.6 59 3.7 E 13 13 7 7 - - 0.0
20/06:10am 12.7 9.1 5.1 60 3.5 E 13 13 7 7 - - 0.0
20/06:00am 11.7 8.1 5.1 64 3.1 E 13 13 7 7 - - 0.0
20/05:50am 11.5 7.8 4.4 61 3.2 E 13 13 7 7 - - 0.0
20/05:40am 11.2 7.4 4.1 61 3.2 E 13 13 7 7 - - 0.0
20/05:30am 11.9 8.0 3.2 55 3.9 E 13 13 7 7 - - 0.0
20/05:20am 12.7 9.1 4.8 58 3.7 E 13 13 7 7 - - 0.0
20/05:10am 13.6 10.2 5.9 59 3.7 E 13 13 7 7 - - 0.0
20/05:00am 13.7 10.3 5.8 59 3.8 E 13 13 7 7 - - 0.0
20/04:50am 13.6 10.2 5.7 59 3.8 E 13 13 7 7 - - 0.0
20/04:40am 13.6 10.1 5.6 58 3.8 E 13 13 7 7 - - 0.0
20/04:30am 13.6 10.1 5.6 58 3.8 E 13 13 7 7 - - 0.0
20/04:20am 13.9 10.4 5.5 57 4.0 E 13 13 7 7 - - 0.0
20/04:10am 14.2 10.7 5.3 55 4.2 E 13 13 7 7 - - 0.0
20/04:00am 14.3 10.8 5.5 55 4.2 E 13 13 7 7 - - 0.0
20/03:50am 14.6 11.1 5.6 54 4.3 E 13 13 7 7 - - 0.0
20/03:40am 15.0 11.5 5.6 53 4.5 E 13 13 7 7 - - 0.0
20/03:30am 15.4 11.9 5.5 51 4.8 E 13 13 7 7 - - 0.0
20/03:20am 15.7 12.2 5.5 50 4.9 E 13 13 7 7 - - 0.0
20/03:10am 16.0 12.5 5.5 49 5.1 E 13 13 7 7 - - 0.0
20/03:00am 16.2 12.8 5.7 49 5.1 E 13 13 7 7 - - 0.0
20/02:50am 16.4 12.9 5.6 49 5.2 E 13 13 7 7 - - 0.0
20/02:40am 16.6 13.2 5.8 49 5.3 E 13 13 7 7 - - 0.0
 
Date/Time
EDT
Temp
°C
App
Temp
°C
Dew
Point
°C
Rel
Hum
%
Delta-T
°C
Wind Press
QNH
hPa
Press
MSL
hPa
Rain since
9am
mm
Dir  Spd
km/h
Gust
km/h
Spd
kts
Gust
kts
19/02:10pm 35.1 30.3 -2.3 9 17.9 E 13 13 7 7 - - 0.0
19/02:00pm 35.2 30.5 -2.0 9 17.9 E 13 13 7 7 - - 0.0
19/01:50pm 35.0 30.3 -1.5 10 17.7 E 13 13 7 7 - - 0.0
19/01:40pm 34.6 30.0 -0.7 10 17.3 E 13 13 7 7 - - 0.0
19/01:30pm 34.2 29.6 -0.7 11 17.1 E 13 13 7 7 - - 0.0
19/01:20pm 34.6 29.8 -2.7 9 17.7 E 13 13 7 7 - - 0.0
19/01:10pm 33.6 29.0 -1.1 11 16.8 E 13 13 7 7 - - 0.0
19/01:00pm 33.9 29.3 -1.4 10 17.0 E 13 13 7 7 - - 0.0
19/12:50pm 33.2 28.6 -1.3 11 16.6 E 13 13 7 7 - - 0.0
19/12:40pm 34.3 29.7 -1.4 10 17.3 E 13 13 7 7 - - 0.0
19/12:30pm 33.4 28.8 -0.9 11 16.6 E 13 13 7 7 - - 0.0
19/12:20pm 33.5 28.9 -1.2 11 16.7 E 13 13 7 7 - - 0.0
19/12:10pm 33.0 28.5 -0.5 11 16.3 E 13 13 7 7 - - 0.0
19/12:00pm 32.8 28.3 -0.4 12 16.2 E 13 13 7 7 - - 0.0
19/11:50am 32.0 27.6 0.1 13 15.6 E 13 13 7 7 - - 0.0
19/11:40am 31.9 27.4 -0.2 12 15.6 E 13 13 7 7 - - 0.0
19/11:30am 32.0 27.5 -0.1 13 15.6 E 13 13 7 7 - - 0.0
19/11:20am 31.4 27.1 0.8 14 15.1 E 13 13 7 7 - - 0.0
19/11:10am 31.8 27.5 0.8 14 15.3 E 13 13 7 7 - - 0.0
19/11:00am 31.0 26.6 0.2 14 15.0 E 13 13 7 7 - - 0.0
19/10:50am 31.2 26.8 0.2 13 15.1 E 13 13 7 7 - - 0.0
19/10:40am 30.8 26.4 0.4 14 14.8 E 13 13 7 7 - - 0.0
19/10:30am 30.6 26.3 1.0 15 14.5 E 13 13 7 7 - - 0.0
19/10:20am 30.0 25.6 0.4 15 14.3 E 13 13 7 7 - - 0.0
19/10:10am 29.5 25.1 0.6 15 14.0 E 13 13 7 7 - - 0.0
19/10:00am 28.5 24.1 0.3 16 13.5 E 13 13 7 7 - - 0.0
19/09:50am 28.0 23.6 0.4 16 13.2 E 13 13 7 7 - - 0.0
19/09:40am 27.4 23.1 0.7 17 12.8 E 13 13 7 7 - - 0.0
19/09:30am 26.6 22.2 0.5 18 12.4 E 13 13 7 7 - - 0.0
19/09:20am 26.2 21.8 0.6 18 12.1 E 13 13 7 7 - - 0.0
19/09:10am 26.1 21.7 0.5 18 12.1 E 13 13 7 7 - - 0.0
19/09:00am 25.5 21.1 0.3 19 11.8 E 13 13 7 7 - - 0.0
19/08:50am 25.2 20.8 0.5 20 11.6 E 13 13 7 7 - - 0.0
19/08:40am 24.7 20.3 0.1 20 11.4 E 13 13 7 7 - - 0.0
19/08:30am 24.1 19.7 0.2 20 11.0 E 13 13 7 7 - - 0.0
19/08:20am 23.3 18.9 0.6 22 10.5 E 13 13 7 7 - - 0.0
19/08:10am 22.4 18.1 0.7 23 10.0 E 13 13 7 7 - - 0.0
19/08:00am 21.7 17.3 0.3 24 9.7 E 13 13 7 7 - - 0.0
19/07:50am 21.1 16.7 0.3 25 9.4 E 13 13 7 7 - - 0.0
19/07:40am 20.0 15.7 0.8 27 8.7 E 13 13 7 7 - - 0.0
19/07:30am 19.3 15.0 0.8 29 8.3 E 13 13 7 7 - - 0.0
19/07:20am 18.7 14.4 1.0 30 7.9 E 13 13 7 7 - - 0.0
19/07:10am 18.3 14.0 0.9 31 7.8 E 13 13 7 7 - - 0.0
19/07:00am 17.4 13.2 1.4 34 7.2 E 13 13 7 7 - - 0.0
19/06:50am 16.4 12.1 0.8 34 6.8 E 13 13 7 7 - - 0.0
19/06:40am 15.6 11.3 1.2 37 6.3 E 13 13 7 7 - - 0.0
19/06:30am 14.7 10.4 1.2 40 5.9 E 13 13 7 7 - - 0.0
19/06:20am 14.4 10.1 0.9 40 5.8 E 13 13 7 7 - - 0.0
19/06:10am 14.2 9.9 1.0 40 5.7 E 13 13 7 7 - - 0.0
19/06:00am 14.2 9.9 0.9 40 5.7 E 13 13 7 7 - - 0.0
19/05:50am 14.0 9.7 0.8 40 5.7 E 13 13 7 7 - - 0.0
19/05:40am 13.6 9.3 0.9 42 5.4 E 13 13 7 7 - - 0.0
19/05:30am 13.4 9.1 0.9 42 5.3 E 13 13 7 7 - - 0.0
19/05:20am 13.5 9.2 1.0 42 5.4 E 13 13 7 7 - - 0.0
19/05:10am 13.6 9.3 0.9 42 5.4 E 13 13 7 7 - - 0.0
19/05:00am 13.5 9.2 0.9 42 5.4 E 13 13 7 7 - - 0.0
19/04:50am 13.5 9.2 0.9 42 5.4 E 13 13 7 7 - - 0.0
19/04:40am 13.5 9.2 0.9 42 5.4 E 13 13 7 7 - - 0.0
19/04:30am 13.6 9.3 0.9 42 5.4 E 13 13 7 7 - - 0.0
19/04:20am 13.6 9.3 0.9 42 5.4 E 13 13 7 7 - - 0.0
19/04:10am 13.7 9.4 0.8 41 5.5 E 13 13 7 7 - - 0.0
19/04:00am 13.5 9.2 0.9 42 5.4 E 13 13 7 7 - - 0.0
19/03:50am 13.6 9.3 1.0 42 5.4 E 13 13 7 7 - - 0.0
19/03:40am 13.7 9.4 1.0 42 5.5 E 13 13 7 7 - - 0.0
19/03:30am 13.8 9.5 1.1 42 5.5 E 13 13 7 7 - - 0.0
19/03:20am 14.0 9.7 1.1 41 5.6 E 13 13 7 7 - - 0.0
19/03:10am 14.1 9.8 1.1 41 5.6 E 13 13 7 7 - - 0.0
19/03:00am 14.3 10.0 1.0 40 5.7 E 13 13 7 7 - - 0.0
19/02:50am 14.4 10.1 1.0 40 5.8 E 13 13 7 7 - - 0.0
19/02:40am 14.3 10.0 1.1 40 5.7 E 13 13 7 7 - - 0.0
19/02:30am 14.5 10.2 1.1 40 5.8 E 13 13 7 7 - - 0.0
19/02:20am 14.7 10.4 1.1 39 5.9 E 13 13 7 7 - - 0.0
19/02:10am 14.9 10.6 1.1 39 6.0 E 13 13 7 7 - - 0.0
19/02:00am 15.1 10.8 1.1 38 6.1 E 13 13 7 7 - - 0.0
19/01:50am 15.5 11.2 1.1 37 6.3 E 13 13 7 7 - - 0.0
19/01:40am 15.7 11.4 1.1 37 6.4 E 13 13 7 7 - - 0.0
19/01:30am 15.9 11.6 1.1 36 6.5 E 13 13 7 7 - - 0.0
19/01:20am 15.9 11.6 1.1 36 6.5 E 13 13 7 7 - - 0.0
19/01:10am 16.3 12.0 1.1 35 6.7 E 13 13 7 7 - - 0.0
19/01:00am 16.7 12.4 1.2 35 6.9 E 13 13 7 7 - - 0.0
19/12:50am 17.1 12.8 1.1 34 7.1 E 13 13 7 7 - - 0.0
19/12:40am 17.0 12.7 1.0 34 7.1 E 13 13 7 7 - - 0.0
19/12:30am 17.0 12.7 0.8 33 7.1 E 13 13 7 7 - - 0.0
19/12:20am 16.7 12.3 0.6 33 7.0 E 13 13 7 7 - - 0.0
19/12:10am 16.7 12.3 0.6 33 7.0 E 13 13 7 7 - - 0.0
19/12:00am 17.1 12.7 0.4 32 7.3 E 13 13 7 7 - - 0.0
 
Date/Time
EDT
Temp
°C
App
Temp
°C
Dew
Point
°C
Rel
Hum
%
Delta-T
°C
Wind Press
QNH
hPa
Press
MSL
hPa
Rain since
9am
mm
Dir  Spd
km/h
Gust
km/h
Spd
kts
Gust
kts
18/11:50pm 17.2 12.8 0.2 31 7.4 E 13 13 7 7 - - 0.0
18/11:40pm 17.3 12.9 0.3 31 7.4 E 13 13 7 7 - - 0.0
18/11:30pm 17.7 13.3 0.4 31 7.6 E 13 13 7 7 - - 0.0
18/11:20pm 17.8 13.4 0.3 30 7.7 E 13 13 7 7 - - 0.0
18/11:00pm 17.8 13.4 0.2 30 7.7 E 13 13 7 7 - - 0.0
18/10:50pm 17.9 13.5 0.3 30 7.7 E 13 13 7 7 - - 0.0
18/10:40pm 18.7 14.3 0.3 29 8.1 E 13 13 7 7 - - 0.0
18/10:30pm 18.4 14.0 0.3 29 8.0 E 13 13 7 7 - - 0.0
18/10:20pm 19.0 14.6 0.6 29 8.2 E 13 13 7 7 - - 0.0
18/10:10pm 19.5 15.1 0.4 27 8.5 E 13 13 7 7 - - 0.0
18/10:00pm 19.5 15.2 1.0 29 8.4 E 13 13 7 7 - - 0.0
18/09:50pm 22.1 17.8 1.2 25 9.7 E 13 13 7 7 - - 0.0
18/09:40pm 22.8 18.5 1.1 24 10.1 E 13 13 7 7 - - 0.0
18/09:30pm 22.7 18.4 1.3 24 10.0 E 13 13 7 7 - - 0.0
18/09:20pm 23.0 18.7 1.2 23 10.2 E 13 13 7 7 - - 0.0
18/09:10pm 23.2 18.9 1.3 23 10.3 E 13 13 7 7 - - 0.0
18/09:00pm 23.3 19.0 1.1 23 10.4 E 13 13 7 7 - - 0.0
18/08:50pm 23.1 18.8 1.2 23 10.2 E 13 13 7 7 - - 0.0
18/08:40pm 23.0 18.7 1.3 24 10.1 E 13 13 7 7 - - 0.0
18/08:30pm 23.5 19.3 1.5 23 10.4 E 13 13 7 7 - - 0.0
18/08:20pm 24.2 20.0 1.4 22 10.8 E 13 13 7 7 - - 0.0
18/08:10pm 24.7 20.5 1.6 22 11.0 E 13 13 7 7 - - 0.0
18/08:00pm 25.5 21.3 1.5 21 11.5 E 13 13 7 7 - - 0.0
18/07:50pm 26.4 22.2 1.6 20 12.0 E 13 13 7 7 - - 0.0
18/07:40pm 27.0 22.8 1.6 19 12.3 E 13 13 7 7 - - 0.0
18/07:30pm 27.5 23.3 1.7 19 12.6 E 13 13 7 7 - - 0.0
18/07:20pm 28.0 23.8 1.6 18 12.9 E 13 13 7 7 - - 0.0
18/07:10pm 28.3 24.1 1.6 18 13.0 E 13 13 7 7 - - 0.0
18/07:00pm 28.5 24.3 1.4 17 13.2 E 13 13 7 7 - - 0.0
18/06:50pm 28.6 24.4 1.4 17 13.3 E 13 13 7 7 - - 0.0
18/06:40pm 28.8 24.6 1.7 17 13.3 E 13 13 7 7 - - 0.0
18/06:30pm 28.7 24.5 1.8 17 13.2 E 13 13 7 7 - - 0.0
18/06:20pm 29.0 24.8 1.8 17 13.4 E 13 13 7 7 - - 0.0
18/06:10pm 28.7 24.5 1.4 17 13.3 E 13 13 7 7 - - 0.0
18/06:00pm 28.9 24.7 1.9 17 13.3 E 13 13 7 7 - - 0.0
18/05:50pm 29.1 24.9 1.6 17 13.5 E 13 13 7 7 - - 0.0
18/05:40pm 28.9 24.7 1.7 17 13.4 E 13 13 7 7 - - 0.0
18/05:30pm 29.0 24.9 2.0 17 13.3 E 13 13 7 7 - - 0.0
18/05:20pm 29.0 24.8 1.8 17 13.4 E 13 13 7 7 - - 0.0
18/05:10pm 28.7 24.5 1.9 18 13.2 E 13 13 7 7 - - 0.0
18/05:00pm 29.0 24.8 1.8 17 13.4 E 13 13 7 7 - - 0.0
18/04:50pm 29.1 25.0 2.5 18 13.3 E 13 13 7 7 - - 0.0
18/04:40pm 28.9 24.8 2.3 18 13.2 E 13 13 7 7 - - 0.0
18/04:30pm 29.0 24.9 2.0 17 13.3 E 13 13 7 7 - - 0.0
18/04:20pm 28.8 24.8 2.6 18 13.1 E 13 13 7 7 - - 0.0
18/04:10pm 28.8 24.7 2.2 18 13.2 E 13 13 7 7 - - 0.0
18/04:00pm 28.9 24.9 2.7 18 13.1 E 13 13 7 7 - - 0.0
18/03:50pm 28.3 24.3 2.6 19 12.8 E 13 13 7 7 - - 0.0
18/03:40pm 28.3 24.3 2.7 19 12.7 E 13 13 7 7 - - 0.0
18/03:30pm 28.4 24.3 2.4 18 12.9 E 13 13 7 7 - - 0.0
18/03:20pm 27.8 23.8 2.6 19 12.5 E 13 13 7 7 - - 0.0
18/03:10pm 28.0 23.9 2.5 19 12.6 E 13 13 7 7 - - 0.0
18/03:00pm 27.7 23.7 2.8 20 12.4 E 13 13 7 7 - - 0.0
18/02:50pm 27.3 23.3 2.9 20 12.1 E 13 13 7 7 - - 0.0
18/02:40pm 27.4 23.4 2.9 20 12.2 E 13 13 7 7 - - 0.0
18/02:30pm 26.6 22.6 2.6 21 11.8 E 13 13 7 7 - - 0.0
18/02:20pm 26.6 22.6 2.9 21 11.7 E 13 13 7 7 - - 0.0
18/02:10pm 27.1 23.1 3.0 21 12.0 E 13 13 7 7 - - 0.0
18/02:00pm 27.5 23.6 3.3 21 12.1 E 13 13 7 7 - - 0.0
18/01:50pm 26.4 22.6 3.8 23 11.3 E 13 13 7 7 - - 0.0
18/01:40pm 26.3 22.3 2.8 22 11.6 E 13 13 7 7 - - 0.0
18/01:30pm 26.1 22.1 2.9 22 11.4 E 13 13 7 7 - - 0.0
18/01:20pm 25.3 21.3 2.7 23 11.0 E 13 13 7 7 - - 0.0
18/01:10pm 26.0 22.1 3.2 23 11.3 E 13 13 7 7 - - 0.0
18/01:00pm 25.8 21.8 2.6 22 11.3 E 13 13 7 7 - - 0.0
18/12:50pm 25.3 21.3 3.1 23 10.9 E 13 13 7 7 - - 0.0
18/12:40pm 24.9 20.9 2.6 23 10.8 E 13 13 7 7 - - 0.0
18/12:30pm 24.6 20.6 2.6 24 10.7 E 13 13 7 7 - - 0.0
18/12:20pm 23.9 20.0 3.4 26 10.0 E 13 13 7 7 - - 0.0

Other formats

Comma delimited format used in spreadsheet applications
http://www.bom.gov.au/fwo/IDN60801/IDN60801.99791.axf

JavaScript Object Notation format (JSON) in row-major order
http://www.bom.gov.au/fwo/IDN60801/IDN60801.99791.json

Data quality

Most of these data are generated automatically and are frequently updated. Quality checks on data are not normally performed. It is possible for incorrect values to appear. Refer to information at About Latest Weather Observations and please check the disclaimer before using these data.